createdAt,value
2019-03-10T00:00:04.231Z,100367.55
2019-03-10T00:02:34.308Z,100353.09
2019-03-10T00:05:04.348Z,100351.69
2019-03-10T00:07:34.503Z,100368.96
2019-03-10T00:10:05.894Z,100379.51
2019-03-10T00:12:35.939Z,100372.08
2019-03-10T00:15:06.204Z,100366.37
2019-03-10T00:17:36.224Z,100351.66
2019-03-10T00:20:06.853Z,100344.76
2019-03-10T00:22:36.883Z,100352.67
2019-03-10T00:25:06.973Z,100342.17
2019-03-10T00:27:36.980Z,100339.00
2019-03-10T00:30:07.173Z,100331.38
2019-03-10T00:32:37.225Z,100336.09
2019-03-10T00:35:07.323Z,100322.91
2019-03-10T00:37:37.452Z,100324.03
2019-03-10T00:40:32.328Z,100316.34
2019-03-10T00:43:45.498Z,100311.95
2019-03-10T00:46:51.516Z,100317.89
2019-03-10T00:50:24.061Z,100309.89
2019-03-10T00:53:00.597Z,100303.22
2019-03-10T00:55:30.819Z,100310.93
2019-03-10T00:58:00.814Z,100307.22
2019-03-10T01:00:30.845Z,100312.34
2019-03-10T01:03:00.875Z,100314.25
2019-03-10T01:05:30.917Z,100322.19
2019-03-10T01:08:00.939Z,100307.38
2019-03-10T01:10:31.065Z,100306.64
2019-03-10T01:13:01.260Z,100305.37
2019-03-10T01:15:31.764Z,100309.89
2019-03-10T01:18:02.680Z,100303.14
2019-03-10T01:20:32.706Z,100306.28
2019-03-10T01:23:02.857Z,100295.48
2019-03-10T01:25:32.939Z,100297.89
2019-03-10T01:28:03.080Z,100294.14
2019-03-10T01:30:51.862Z,100295.52
2019-03-10T01:34:14.940Z,100301.31
2019-03-10T01:36:45.043Z,100290.58
2019-03-10T01:39:15.224Z,100294.87
2019-03-10T01:41:45.335Z,100290.88
2019-03-10T01:44:15.422Z,100293.97
2019-03-10T01:46:45.550Z,100301.09
2019-03-10T01:49:15.738Z,100281.82
2019-03-10T01:51:45.990Z,100283.02
2019-03-10T01:54:16.107Z,100280.20
2019-03-10T01:56:46.279Z,100274.80
2019-03-10T01:59:16.353Z,100284.63
2019-03-10T02:01:46.478Z,100277.53
2019-03-10T02:04:16.626Z,100288.48
2019-03-10T02:06:46.987Z,100276.73
2019-03-10T02:09:18.396Z,100282.06
2019-03-10T02:11:48.482Z,100275.33
2019-03-10T02:14:18.603Z,100278.14
2019-03-10T02:16:48.693Z,100269.23
2019-03-10T02:19:18.788Z,100265.38
2019-03-10T02:21:48.854Z,100261.23
2019-03-10T02:24:24.110Z,100257.89
2019-03-10T02:26:52.356Z,100240.48
2019-03-10T02:29:22.466Z,100241.89
2019-03-10T02:31:52.515Z,100245.23
2019-03-10T02:34:22.639Z,100241.23
2019-03-10T02:36:52.636Z,100243.08
2019-03-10T02:39:22.740Z,100249.98
2019-03-10T02:41:52.703Z,100264.50
2019-03-10T02:44:22.746Z,100266.23
2019-03-10T02:46:52.741Z,100253.23
2019-03-10T02:49:22.794Z,100260.19
2019-03-10T02:51:52.776Z,100252.70
2019-03-10T02:54:22.823Z,100232.40
2019-03-10T02:56:52.888Z,100230.45
2019-03-10T02:59:22.890Z,100217.64
2019-03-10T03:01:52.938Z,100224.70
2019-03-10T03:04:23.008Z,100208.96
2019-03-10T03:06:53.059Z,100207.44
2019-03-10T03:09:23.019Z,100217.52
2019-03-10T03:11:53.121Z,100204.76
2019-03-10T03:14:23.116Z,100210.77
2019-03-10T03:16:53.159Z,100218.11
2019-03-10T03:19:23.159Z,100225.81
2019-03-10T03:21:53.192Z,100223.98
2019-03-10T03:24:23.203Z,100222.81
2019-03-10T03:26:53.249Z,100218.33
2019-03-10T03:29:23.270Z,100219.68
2019-03-10T03:31:53.296Z,100207.45
2019-03-10T03:34:23.356Z,100204.22
2019-03-10T03:36:53.433Z,100197.84
2019-03-10T03:39:36.003Z,100197.91
2019-03-10T03:42:06.026Z,100193.41
2019-03-10T03:44:36.112Z,100195.17
2019-03-10T03:47:06.182Z,100186.82
2019-03-10T03:49:36.192Z,100186.75
2019-03-10T03:52:06.274Z,100189.99
2019-03-10T03:54:36.366Z,100186.14
2019-03-10T03:57:06.398Z,100190.14
2019-03-10T03:59:36.484Z,100184.73
2019-03-10T04:02:12.007Z,100186.22
2019-03-10T04:04:42.097Z,100186.90
2019-03-10T04:07:12.192Z,100184.95
2019-03-10T04:09:42.190Z,100178.66
2019-03-10T04:12:12.221Z,100180.06
2019-03-10T04:14:42.209Z,100191.11
2019-03-10T04:17:12.273Z,100178.98
2019-03-10T04:19:42.284Z,100183.41
2019-03-10T04:22:12.325Z,100172.06
2019-03-10T04:24:42.322Z,100166.91
2019-03-10T04:27:12.313Z,100175.41
2019-03-10T04:29:42.293Z,100166.88
2019-03-10T04:32:12.359Z,100169.33
2019-03-10T04:34:42.346Z,100164.09
2019-03-10T04:37:12.374Z,100149.55
2019-03-10T04:39:42.389Z,100140.83
2019-03-10T04:42:12.383Z,100141.87
2019-03-10T04:44:42.418Z,100137.95
2019-03-10T04:47:12.487Z,100130.60
2019-03-10T04:49:42.557Z,100127.80
2019-03-10T04:52:12.567Z,100121.27
2019-03-10T04:54:59.534Z,100119.72
2019-03-10T04:57:29.515Z,100117.27
2019-03-10T04:59:59.513Z,100120.62
2019-03-10T05:02:29.564Z,100116.77
2019-03-10T05:04:59.580Z,100113.75
2019-03-10T05:07:29.641Z,100113.06
2019-03-10T05:09:59.735Z,100105.82
2019-03-10T05:12:29.847Z,100103.98
2019-03-10T05:14:59.857Z,100109.81
2019-03-10T05:17:29.973Z,100117.17
2019-03-10T05:20:00.006Z,100116.41
2019-03-10T05:22:30.131Z,100118.72
2019-03-10T05:25:00.337Z,100111.02
2019-03-10T05:27:30.413Z,100111.66
2019-03-10T05:30:00.477Z,100105.61
2019-03-10T05:32:30.521Z,100106.03
2019-03-10T05:35:00.527Z,100108.13
2019-03-10T05:37:30.539Z,100096.27
2019-03-10T05:40:00.628Z,100092.92
2019-03-10T05:42:30.696Z,100098.47
2019-03-10T05:45:00.747Z,100095.30
2019-03-10T05:47:30.757Z,100092.09
2019-03-10T05:50:00.833Z,100091.66
2019-03-10T05:52:30.971Z,100090.54
2019-03-10T05:55:01.939Z,100087.39
2019-03-10T05:57:31.973Z,100086.88
2019-03-10T06:00:02.697Z,100079.69
2019-03-10T06:02:32.751Z,100086.20
2019-03-10T06:05:02.801Z,100086.28
2019-03-10T06:07:32.808Z,100084.20
2019-03-10T06:10:02.841Z,100079.89
2019-03-10T06:12:32.828Z,100074.63
2019-03-10T06:15:02.868Z,100067.16
2019-03-10T06:17:32.890Z,100070.56
2019-03-10T06:20:02.967Z,100057.89
2019-03-10T06:22:32.959Z,100055.04
2019-03-10T06:25:03.330Z,100058.28
2019-03-10T06:27:33.350Z,100047.45
2019-03-10T06:30:03.396Z,100038.14
2019-03-10T06:32:33.415Z,100039.25
2019-03-10T06:35:03.471Z,100042.34
2019-03-10T06:37:33.551Z,100033.50
2019-03-10T06:40:03.602Z,100033.51
2019-03-10T06:42:33.621Z,100031.32
2019-03-10T06:45:03.671Z,100028.96
2019-03-10T06:47:33.874Z,100029.03
2019-03-10T06:50:04.051Z,100020.18
2019-03-10T06:52:34.058Z,100016.63
2019-03-10T06:55:04.116Z,100014.50
2019-03-10T06:57:34.126Z,100001.49
2019-03-10T07:00:04.456Z,99993.39
2019-03-10T07:02:34.511Z,99985.56
2019-03-10T07:05:04.588Z,99987.27
2019-03-10T07:07:34.602Z,99983.72
2019-03-10T07:10:05.021Z,99981.62
2019-03-10T07:12:35.107Z,99974.23
2019-03-10T07:15:05.266Z,99976.85
2019-03-10T07:17:35.267Z,99974.47
2019-03-10T07:20:06.447Z,99971.37
2019-03-10T07:22:36.477Z,99967.52
2019-03-10T07:25:07.242Z,99968.09
2019-03-10T07:27:58.142Z,99958.41
2019-03-10T07:30:53.244Z,99959.40
2019-03-10T07:33:51.517Z,99950.23
2019-03-10T07:36:46.516Z,99945.81
2019-03-10T07:39:44.572Z,99928.97
2019-03-10T07:42:36.691Z,99924.19
2019-03-10T07:45:15.286Z,99917.23
2019-03-10T07:48:07.692Z,99922.64
2019-03-10T07:50:42.604Z,99917.81
2019-03-10T07:53:36.897Z,99910.24
2019-03-10T07:56:34.994Z,99910.92
2019-03-10T07:59:36.066Z,99908.31
2019-03-10T08:02:18.450Z,99910.53
2019-03-10T08:05:03.602Z,99908.42
2019-03-10T08:07:51.232Z,99895.03
2019-03-10T08:10:58.592Z,99899.38
2019-03-10T08:13:59.490Z,99896.88
2019-03-10T08:16:41.128Z,99892.02
2019-03-10T08:19:30.105Z,99888.13
2019-03-10T08:22:30.457Z,99880.84
2019-03-10T08:25:28.389Z,99884.77
2019-03-10T08:28:26.538Z,99879.66
2019-03-10T08:31:15.504Z,99873.49
2019-03-10T08:33:56.541Z,99866.05
2019-03-10T08:36:54.599Z,99876.03
2019-03-10T08:39:43.668Z,99864.66
2019-03-10T08:42:49.476Z,99861.60
2019-03-10T08:45:29.843Z,99846.25
2019-03-10T08:48:30.908Z,99848.25
2019-03-10T08:51:19.854Z,99843.78
2019-03-10T08:54:04.061Z,99837.95
2019-03-10T08:56:50.564Z,99835.59
2019-03-10T08:59:33.223Z,99836.97
2019-03-10T09:02:22.239Z,99843.42
2019-03-10T09:05:22.728Z,99839.96
2019-03-10T09:08:01.588Z,99832.73
2019-03-10T09:10:41.701Z,99833.23
2019-03-10T09:13:48.815Z,99826.36
2019-03-10T09:16:36.856Z,99820.30
2019-03-10T09:19:23.388Z,99812.41
2019-03-10T09:22:11.252Z,99806.32
2019-03-10T09:25:00.274Z,99804.67
2019-03-10T09:27:45.539Z,99802.52
2019-03-10T09:30:27.073Z,99798.20
2019-03-10T09:33:08.922Z,99790.27
2019-03-10T09:36:03.992Z,99793.20
2019-03-10T09:39:09.975Z,99789.12
2019-03-10T09:42:03.118Z,99782.28
2019-03-10T09:44:42.652Z,99786.02
2019-03-10T09:47:46.945Z,99782.25
2019-03-10T09:50:39.080Z,99772.33
2019-03-10T09:53:18.672Z,99779.56
2019-03-10T09:55:56.314Z,99774.59
2019-03-10T09:58:42.479Z,99760.09
2019-03-10T10:01:25.331Z,99761.58
2019-03-10T10:04:11.251Z,99758.67
2019-03-10T10:07:06.313Z,99751.16
2019-03-10T10:09:58.293Z,99741.56
2019-03-10T10:12:53.569Z,99737.31
2019-03-10T10:15:51.795Z,99725.79
2019-03-10T10:18:35.533Z,99723.42
2019-03-10T10:21:24.479Z,99723.77
2019-03-10T10:24:13.085Z,99713.56
2019-03-10T10:27:00.928Z,99705.39
2019-03-10T10:30:02.862Z,99701.54
2019-03-10T10:32:47.280Z,99699.25
2019-03-10T10:35:26.973Z,99691.50
2019-03-10T10:38:24.960Z,99695.19
2019-03-10T10:41:11.468Z,99687.22
2019-03-10T10:43:59.169Z,99676.30
2019-03-10T10:46:42.476Z,99673.52
2019-03-10T10:49:30.358Z,99667.38
2019-03-10T10:52:19.341Z,99659.98
2019-03-10T10:55:06.619Z,99652.90
2019-03-10T10:57:42.361Z,99650.77
2019-03-10T11:00:40.897Z,99628.62
2019-03-10T11:03:42.179Z,99623.31
2019-03-10T11:06:20.118Z,99619.45
2019-03-10T11:09:09.089Z,99621.41
2019-03-10T11:11:54.886Z,99617.89
2019-03-10T11:14:50.802Z,99614.66
2019-03-10T11:17:35.033Z,99612.80
2019-03-10T11:20:24.463Z,99611.09
2019-03-10T11:23:01.065Z,99606.09
2019-03-10T11:25:47.740Z,99601.37
2019-03-10T11:28:45.852Z,99603.53
2019-03-10T11:31:37.859Z,99596.80
2019-03-10T11:34:23.891Z,99585.28
2019-03-10T11:37:12.864Z,99563.39
2019-03-10T11:39:56.387Z,99551.13
2019-03-10T11:42:35.441Z,99569.54
2019-03-10T11:45:24.108Z,99562.88
2019-03-10T11:48:18.939Z,99561.84
2019-03-10T11:51:06.567Z,99557.02
2019-03-10T11:53:42.685Z,99552.21
2019-03-10T11:56:29.207Z,99547.02
2019-03-10T11:59:30.195Z,99539.58
2019-03-10T12:02:19.235Z,99537.18
2019-03-10T12:04:59.351Z,99525.12
2019-03-10T12:07:38.336Z,99522.44
2019-03-10T12:10:09.084Z,99513.94
2019-03-10T12:12:39.164Z,99513.14
2019-03-10T12:15:09.881Z,99505.88
2019-03-10T12:17:39.974Z,99498.19
2019-03-10T12:20:10.687Z,99493.59
2019-03-10T12:22:40.804Z,99486.95
2019-03-10T12:25:11.088Z,99481.58
2019-03-10T12:27:41.140Z,99474.08
2019-03-10T12:30:11.676Z,99474.08
2019-03-10T12:32:41.783Z,99474.37
2019-03-10T12:35:11.896Z,99463.39
2019-03-10T12:37:41.967Z,99460.16
2019-03-10T12:40:12.034Z,99454.02
2019-03-10T12:42:42.170Z,99453.73
2019-03-10T12:45:12.342Z,99456.98
2019-03-10T12:47:42.393Z,99450.05
2019-03-10T12:50:12.451Z,99450.05
2019-03-10T12:52:42.483Z,99443.33
2019-03-10T12:55:16.067Z,99429.09
2019-03-10T12:57:46.114Z,99422.91
2019-03-10T13:00:16.611Z,99417.03
2019-03-10T13:02:46.654Z,99418.60
2019-03-10T13:05:16.731Z,99406.84
2019-03-10T13:07:46.762Z,99401.80
2019-03-10T13:10:16.865Z,99393.12
2019-03-10T13:12:46.947Z,99388.59
2019-03-10T13:15:17.022Z,99389.25
2019-03-10T13:17:47.090Z,99382.61
2019-03-10T13:20:27.512Z,99384.72
2019-03-10T13:22:49.407Z,99384.69
2019-03-10T13:25:19.444Z,99397.93
2019-03-10T13:27:49.452Z,99400.59
2019-03-10T13:30:19.707Z,99392.16
2019-03-10T13:32:49.745Z,99391.40
2019-03-10T13:35:19.863Z,99390.39
2019-03-10T13:37:49.927Z,99392.02
2019-03-10T13:40:19.969Z,99388.49
2019-03-10T13:42:50.033Z,99381.50
2019-03-10T13:45:20.077Z,99380.89
2019-03-10T13:47:50.179Z,99385.27
2019-03-10T13:50:20.220Z,99394.75
2019-03-10T13:52:50.302Z,99400.08
2019-03-10T13:55:20.426Z,99399.67
2019-03-10T13:57:50.488Z,99394.23
2019-03-10T14:00:22.634Z,99400.39
2019-03-10T14:02:52.755Z,99397.11
2019-03-10T14:05:22.871Z,99399.09
2019-03-10T14:07:53.026Z,99394.74
2019-03-10T14:10:23.075Z,99402.21
2019-03-10T14:12:53.164Z,99403.88
2019-03-10T14:15:23.252Z,99405.46
2019-03-10T14:17:53.374Z,99401.27
2019-03-10T14:20:23.527Z,99397.80
2019-03-10T14:22:53.621Z,99391.81
2019-03-10T14:25:23.738Z,99386.02
2019-03-10T14:27:53.826Z,99383.27
2019-03-10T14:30:23.908Z,99371.86
2019-03-10T14:32:53.975Z,99375.35
2019-03-10T14:35:24.049Z,99371.05
2019-03-10T14:37:54.165Z,99379.36
2019-03-10T14:40:24.531Z,99372.75
2019-03-10T14:42:54.618Z,99369.09
2019-03-10T14:45:24.732Z,99373.19
2019-03-10T14:47:56.101Z,99376.36
2019-03-10T14:50:26.201Z,99390.17
2019-03-10T14:52:56.260Z,99392.58
2019-03-10T14:55:26.306Z,99395.27
2019-03-10T14:57:56.382Z,99398.37
2019-03-10T15:00:26.438Z,99393.21
2019-03-10T15:02:56.774Z,99377.85
2019-03-10T15:05:26.848Z,99369.90
2019-03-10T15:07:56.947Z,99355.81
2019-03-10T15:10:27.005Z,99358.03
2019-03-10T15:12:57.155Z,99346.70
2019-03-10T15:15:27.217Z,99352.70
2019-03-10T15:17:57.325Z,99365.58
2019-03-10T15:20:27.380Z,99379.45
2019-03-10T15:22:57.631Z,99389.90
2019-03-10T15:25:27.772Z,99393.04
2019-03-10T15:27:57.915Z,99388.99
2019-03-10T15:30:28.026Z,99382.39
2019-03-10T15:32:58.286Z,99382.58
2019-03-10T15:35:29.174Z,99379.06
2019-03-10T15:37:59.400Z,99379.60
2019-03-10T15:40:29.504Z,99379.23
2019-03-10T15:42:59.583Z,99372.49
2019-03-10T15:45:29.730Z,99367.44
2019-03-10T15:47:59.862Z,99356.42
2019-03-10T15:50:30.039Z,99347.45
2019-03-10T15:53:00.140Z,99344.86
2019-03-10T15:55:30.244Z,99322.87
2019-03-10T15:58:00.333Z,99329.19
2019-03-10T16:00:30.526Z,99345.80
2019-03-10T16:03:00.646Z,99344.19
2019-03-10T16:05:33.025Z,99350.91
2019-03-10T16:08:02.527Z,99353.80
2019-03-10T16:10:32.622Z,99362.89
2019-03-10T16:13:02.701Z,99381.37
2019-03-10T16:15:32.799Z,99391.91
2019-03-10T16:18:03.003Z,99402.45
2019-03-10T16:20:33.090Z,99414.38
2019-03-10T16:23:03.150Z,99419.52
2019-03-10T16:25:33.292Z,99407.21
2019-03-10T16:28:03.395Z,99414.92
2019-03-10T16:30:33.652Z,99431.41
2019-03-10T16:33:03.919Z,99440.82
2019-03-10T16:35:34.058Z,99460.66
2019-03-10T16:38:04.413Z,99482.06
2019-03-10T16:40:34.529Z,99479.40
2019-03-10T16:43:04.670Z,99494.05
2019-03-10T16:45:34.713Z,99494.23
2019-03-10T16:48:05.015Z,99497.59
2019-03-10T16:50:35.051Z,99503.10
2019-03-10T16:53:05.303Z,99510.88
2019-03-10T16:55:35.411Z,99511.22
2019-03-10T16:58:05.432Z,99512.23
2019-03-10T17:00:35.633Z,99522.08
2019-03-10T17:03:06.752Z,99527.36
2019-03-10T17:05:36.874Z,99530.43
2019-03-10T17:08:06.981Z,99545.60
2019-03-10T17:10:36.974Z,99553.06
2019-03-10T17:13:07.070Z,99545.45
2019-03-10T17:15:37.134Z,99557.47
2019-03-10T17:18:07.423Z,99573.37
2019-03-10T17:20:37.519Z,99565.20
2019-03-10T17:23:07.695Z,99572.22
2019-03-10T17:25:37.703Z,99576.78
2019-03-10T17:28:07.808Z,99578.39
2019-03-10T17:30:37.918Z,99585.33
2019-03-10T17:33:07.990Z,99591.52
2019-03-10T17:35:38.307Z,99597.27
2019-03-10T17:38:08.403Z,99602.84
2019-03-10T17:40:38.475Z,99595.53
2019-03-10T17:43:08.564Z,99603.17
2019-03-10T17:45:38.744Z,99609.50
2019-03-10T17:48:08.895Z,99619.44
2019-03-10T17:50:38.985Z,99629.06
2019-03-10T17:53:09.067Z,99631.19
2019-03-10T17:55:39.239Z,99635.41
2019-03-10T17:58:09.321Z,99650.67
2019-03-10T18:00:39.803Z,99656.59
2019-03-10T18:03:09.840Z,99672.66
2019-03-10T18:05:39.974Z,99694.73
2019-03-10T18:08:10.063Z,99705.71
2019-03-10T18:10:40.143Z,99711.42
2019-03-10T18:13:10.188Z,99725.46
2019-03-10T18:15:40.267Z,99731.64
2019-03-10T18:18:10.342Z,99736.20
2019-03-10T18:20:40.454Z,99740.95
2019-03-10T18:23:10.523Z,99741.64
2019-03-10T18:25:40.648Z,99749.53
2019-03-10T18:28:10.679Z,99764.78
2019-03-10T18:30:41.355Z,99770.31
2019-03-10T18:33:11.374Z,99780.94
2019-03-10T18:35:41.464Z,99781.97
2019-03-10T18:38:11.530Z,99792.79
2019-03-10T18:40:41.654Z,99800.33
2019-03-10T18:43:11.729Z,99808.23
2019-03-10T18:45:41.792Z,99808.53
2019-03-10T18:48:11.905Z,99816.88
2019-03-10T18:50:42.003Z,99822.82
2019-03-10T18:53:12.140Z,99832.88
2019-03-10T18:55:42.216Z,99834.72
2019-03-10T18:58:12.357Z,99839.81
2019-03-10T19:00:42.394Z,99846.98
2019-03-10T19:03:12.476Z,99856.75
2019-03-10T19:05:42.514Z,99861.75
2019-03-10T19:08:12.648Z,99871.66
2019-03-10T19:10:42.777Z,99881.63
2019-03-10T19:13:12.819Z,99883.78
2019-03-10T19:15:43.234Z,99886.29
2019-03-10T19:18:13.677Z,99894.63
2019-03-10T19:20:43.785Z,99901.14
2019-03-10T19:23:13.931Z,99910.91
2019-03-10T19:25:43.972Z,99912.47
2019-03-10T19:28:14.061Z,99923.97
2019-03-10T19:30:44.126Z,99925.69
2019-03-10T19:33:14.228Z,99934.10
2019-03-10T19:35:44.342Z,99940.54
2019-03-10T19:38:14.446Z,99939.36
2019-03-10T19:40:44.498Z,99945.33
2019-03-10T19:43:14.611Z,99953.08
2019-03-10T19:45:44.728Z,99958.72
2019-03-10T19:48:14.858Z,99954.42
2019-03-10T19:50:44.971Z,99965.80
2019-03-10T19:53:15.033Z,99969.36
2019-03-10T19:55:48.100Z,99979.32
2019-03-10T19:58:18.221Z,99979.44
2019-03-10T20:00:48.323Z,99989.80
2019-03-10T20:03:18.698Z,99992.87
2019-03-10T20:05:48.764Z,99995.16
2019-03-10T20:08:18.894Z,99999.81
2019-03-10T20:10:49.028Z,100005.69
2019-03-10T20:13:19.120Z,100004.22
2019-03-10T20:15:49.221Z,100009.81
2019-03-10T20:18:19.271Z,100015.36
2019-03-10T20:20:49.360Z,100021.83
2019-03-10T20:23:19.459Z,100028.09
2019-03-10T20:25:49.540Z,100031.95
2019-03-10T20:28:19.677Z,100029.69
2019-03-10T20:30:49.736Z,100033.38
2019-03-10T20:33:19.885Z,100032.25
2019-03-10T20:35:50.385Z,100038.58
2019-03-10T20:38:20.573Z,100048.88
2019-03-10T20:41:00.900Z,100051.45
2019-03-10T20:43:31.172Z,100057.59
2019-03-10T20:46:01.277Z,100066.53
2019-03-10T20:48:31.371Z,100067.19
2019-03-10T20:51:01.437Z,100067.06
2019-03-10T20:53:31.528Z,100081.23
2019-03-10T20:56:01.593Z,100084.22
2019-03-10T20:58:31.709Z,100087.75
2019-03-10T21:01:01.815Z,100096.44
2019-03-10T21:03:31.862Z,100100.84
2019-03-10T21:06:01.933Z,100106.33
2019-03-10T21:08:32.055Z,100120.13
2019-03-10T21:11:02.229Z,100131.32
2019-03-10T21:13:32.501Z,100132.11
2019-03-10T21:16:02.581Z,100141.83
2019-03-10T21:18:32.699Z,100147.83
2019-03-10T21:21:02.792Z,100153.81
2019-03-10T21:23:32.834Z,100161.44
2019-03-10T21:26:02.969Z,100161.53
2019-03-10T21:28:33.198Z,100167.44
2019-03-10T21:31:03.343Z,100166.52
2019-03-10T21:33:36.570Z,100174.97
2019-03-10T21:36:06.752Z,100183.45
2019-03-10T21:38:37.059Z,100185.19
2019-03-10T21:41:14.083Z,100184.27
2019-03-10T21:43:39.183Z,100191.93
2019-03-10T21:46:09.263Z,100194.88
2019-03-10T21:48:39.302Z,100197.00
2019-03-10T21:51:09.385Z,100202.59
2019-03-10T21:53:39.467Z,100209.03
2019-03-10T21:56:09.573Z,100217.27
2019-03-10T21:58:39.651Z,100213.70
2019-03-10T22:01:09.707Z,100223.39
2019-03-10T22:03:39.715Z,100228.89
2019-03-10T22:06:09.797Z,100226.34
2019-03-10T22:08:39.845Z,100227.08
2019-03-10T22:11:09.901Z,100228.52
2019-03-10T22:13:46.671Z,100229.59
2019-03-10T22:16:11.796Z,100240.19
2019-03-10T22:18:41.769Z,100238.77
2019-03-10T22:21:11.850Z,100239.62
2019-03-10T22:23:41.888Z,100243.61
2019-03-10T22:26:11.944Z,100247.13
2019-03-10T22:28:42.021Z,100249.72
2019-03-10T22:31:12.178Z,100260.25
2019-03-10T22:33:42.219Z,100261.37
2019-03-10T22:36:12.361Z,100264.95
2019-03-10T22:38:42.496Z,100264.70
2019-03-10T22:41:12.745Z,100267.44
2019-03-10T22:43:43.073Z,100266.73
2019-03-10T22:46:13.144Z,100267.59
2019-03-10T22:48:43.276Z,100269.41
2019-03-10T22:51:13.524Z,100260.98
2019-03-10T22:53:43.626Z,100269.63
2019-03-10T22:56:13.825Z,100269.45
2019-03-10T22:58:43.937Z,100275.31
2019-03-10T23:01:14.259Z,100283.55
2019-03-10T23:03:44.344Z,100275.58
2019-03-10T23:06:14.402Z,100277.61
2019-03-10T23:08:44.679Z,100273.33
2019-03-10T23:11:14.769Z,100271.13
2019-03-10T23:13:44.867Z,100276.58
2019-03-10T23:16:15.174Z,100284.63
2019-03-10T23:18:45.274Z,100283.22
2019-03-10T23:21:15.325Z,100290.83
2019-03-10T23:23:45.450Z,100295.72
2019-03-10T23:26:15.567Z,100292.53
2019-03-10T23:28:45.677Z,100299.72
2019-03-10T23:31:15.803Z,100296.22
2019-03-10T23:33:46.102Z,100305.64
2019-03-10T23:36:16.452Z,100301.07
2019-03-10T23:38:46.517Z,100301.07
2019-03-10T23:41:16.555Z,100304.55
2019-03-10T23:43:46.612Z,100304.18
2019-03-10T23:46:16.633Z,100302.55
2019-03-10T23:48:46.650Z,100306.19
2019-03-10T23:51:16.712Z,100311.51
2019-03-10T23:53:46.720Z,100302.10
2019-03-10T23:56:16.918Z,100310.19
2019-03-10T23:58:46.957Z,100308.20
